Kemal Reis 5 — TCSM5 — position and weather

sailwx.info

Track history (hours):
 
Tides and Currents Weather Stations Pressure Air Temp Water Temp Dewpoint Dewpoint Depression Visibility Wind Speed Wind Dir Waves Ship Positions

Kemal Reis 5

Last reported at 2018-Jan-22 11:30 UTC. Time now 2018-Jan-22 20:30 UTC.
Position N 40°58' E 029°01'.

Length 42 m.

Type: Passenger vessel. MMSI: 271002467.

Date/timePositionNaut miles runAvg speedWind from/ knotsBaromVisibWave heightAir tempDewpointWater temp
2018-Jan-22 11:30N 40°58' E 029°01'0 0.1
2018-Jan-22 05:56N 40°58' E 029°02'4 4.9
2018-Jan-22 05:10N 40°60' E 028°58'526.3
2018-Jan-22 04:59N 40°55' E 028°55'5 0.4
2018-Jan-21 17:35N 40°51' E 028°54'10 2.6
2018-Jan-21 13:50N 41°00' E 028°57'410.1
2018-Jan-21 13:29N 40°57' E 028°57'1527.2
2018-Jan-21 12:57N 40°43' E 028°51'9 2.7
2018-Jan-21 09:34N 40°52' E 028°54'8 3.5
2018-Jan-21 07:10N 40°59' E 028°58'625.7
2018-Jan-21 06:57N 40°54' E 028°55'3 0.2
2018-Jan-20 10:39N 40°51' E 028°54'926.4
2018-Jan-20 10:19N 40°59' E 028°58'1 0.8
2018-Jan-20 09:20N 41°00' E 028°57'715.4
2018-Jan-20 08:53N 40°54' E 028°54'2 0.7
2018-Jan-20 05:35N 40°51' E 028°54'526.8
2018-Jan-20 05:24N 40°56' E 028°56'4 0.5
2018-Jan-19 19:42N 41°00' E 028°57'316.7
2018-Jan-19 19:29N 40°57' E 028°56'  
Track history (hours):
 
Tides and Currents Weather Stations Pressure Air Temp Water Temp Dewpoint Dewpoint Depression Visibility Wind Speed Wind Dir Waves Ship Positions

Kemal Reis 5

Last reported at 2018-Jan-22 11:30 UTC. Time now 2018-Jan-22 20:30 UTC.
Position N 40°58' E 029°01'.

Length 42 m.

Type: Passenger vessel. MMSI: 271002467.

Date/timePositionNaut miles runAvg speedWind from/ knotsBaromVisibWave heightAir tempDewpointWater temp
2018-Jan-22 11:30N 40°58' E 029°01'0 0.1
2018-Jan-22 05:56N 40°58' E 029°02'4 4.9
2018-Jan-22 05:10N 40°60' E 028°58'526.3
2018-Jan-22 04:59N 40°55' E 028°55'5 0.4
2018-Jan-21 17:35N 40°51' E 028°54'10 2.6
2018-Jan-21 13:50N 41°00' E 028°57'410.1
2018-Jan-21 13:29N 40°57' E 028°57'1527.2
2018-Jan-21 12:57N 40°43' E 028°51'9 2.7
2018-Jan-21 09:34N 40°52' E 028°54'8 3.5
2018-Jan-21 07:10N 40°59' E 028°58'625.7
2018-Jan-21 06:57N 40°54' E 028°55'3 0.2
2018-Jan-20 10:39N 40°51' E 028°54'926.4
2018-Jan-20 10:19N 40°59' E 028°58'1 0.8
2018-Jan-20 09:20N 41°00' E 028°57'715.4
2018-Jan-20 08:53N 40°54' E 028°54'2 0.7
2018-Jan-20 05:35N 40°51' E 028°54'526.8
2018-Jan-20 05:24N 40°56' E 028°56'4 0.5
2018-Jan-19 19:42N 41°00' E 028°57'316.7
2018-Jan-19 19:29N 40°57' E 028°56'  

Dump ship's entire track history